Terminal Aerodrome Forecast
Issued by NWS Bismarck, ND

Home | Current Version | Previous Version | Text Only | Print | Product List | Glossary On
Versions: 1 2 3 4 5 6 7 8 9 10 11 12 13 14
000
FTUS43 KBIS 050531
TAFBIS
TAF
KBIS 050531Z 0506/0606 14007KT P6SM SCT150 SCT250
     FM051000 14007KT P6SM SCT090 BKN250
     FM051300 15008KT P6SM VCSH BKN120
     FM051700 19012KT P6SM VCTS SCT050 BKN080CB
     FM052200 25012KT P6SM SCT060 BKN100
     FM060300 09005KT P6SM SCT080 BKN150=

USA.gov is the U.S. government's official web portal to all federal, state and local government web resources and services.